createdAt,value
2018-11-26T00:09:08.799Z,19.75
2018-11-26T00:11:40.906Z,16.40
2018-11-26T00:14:12.863Z,17.48
2018-11-26T00:16:44.822Z,13.48
2018-11-26T00:19:17.441Z,14.23
2018-11-26T00:39:37.103Z,18.65
2018-11-26T00:42:09.043Z,19.07
2018-11-26T00:44:41.963Z,15.83
2018-11-26T00:47:13.910Z,20.10
2018-11-26T00:49:45.859Z,15.53
2018-11-26T00:52:17.797Z,17.10
2018-11-26T00:54:49.749Z,15.63
2018-11-26T01:06:15.774Z,18.67
2018-11-26T01:08:47.734Z,17.12
2018-11-26T01:29:08.866Z,15.60
2018-11-26T01:31:40.804Z,17.05
2018-11-26T01:34:12.808Z,19.37
2018-11-26T01:54:32.656Z,19.23
2018-11-26T01:57:04.815Z,17.75
2018-11-26T01:59:36.749Z,18.23
2018-11-26T02:02:08.707Z,16.25
2018-11-26T02:40:22.716Z,18.85
2018-11-26T02:42:54.673Z,21.17
2018-11-26T02:45:27.922Z,17.23
2018-11-26T02:47:59.922Z,16.52
2018-11-26T02:50:31.859Z,16.77
2018-11-26T02:53:03.859Z,21.00
2018-11-26T02:55:35.799Z,20.57
2018-11-26T02:58:08.492Z,16.12
2018-11-26T03:00:41.309Z,17.95
2018-11-26T03:03:14.983Z,19.27
2018-11-26T03:09:08.259Z,19.02
2018-11-26T03:11:40.218Z,19.55
2018-11-26T03:14:12.156Z,16.82
2018-11-26T03:16:44.103Z,21.87
2018-11-26T03:19:16.115Z,20.25
2018-11-26T03:21:48.078Z,18.02
2018-11-26T03:24:20.025Z,18.90
2018-11-26T03:26:51.980Z,23.57
2018-11-26T03:29:23.975Z,23.45
2018-11-26T03:31:55.955Z,19.70
2018-11-26T03:34:28.551Z,19.42
2018-11-26T03:37:00.529Z,18.35
2018-11-26T03:39:32.570Z,25.62
2018-11-26T03:42:04.604Z,20.00
2018-11-26T04:08:18.888Z,19.95
2018-11-26T04:10:50.848Z,22.52
2018-11-26T04:13:22.787Z,15.88
2018-11-26T04:15:54.735Z,20.27
2018-11-26T04:18:26.859Z,18.73
2018-11-26T04:20:58.795Z,17.67
2018-11-26T04:23:30.759Z,19.92
2018-11-26T04:26:02.709Z,20.00
2018-11-26T04:28:34.667Z,21.00
2018-11-26T04:31:06.630Z,19.60
2018-11-26T04:33:38.591Z,18.85
2018-11-26T04:53:57.971Z,20.20
2018-11-26T04:56:29.942Z,17.90
2018-11-26T04:59:01.921Z,19.12
2018-11-26T05:25:17.715Z,17.10
2018-11-26T05:27:50.241Z,17.48
2018-11-26T05:30:22.208Z,19.17
2018-11-26T05:32:54.151Z,16.90
2018-11-26T05:35:26.130Z,21.45
2018-11-26T05:37:58.079Z,22.52
2018-11-26T05:40:30.038Z,21.45
2018-11-26T05:43:01.995Z,25.23
2018-11-26T05:45:33.962Z,21.05
2018-11-26T05:48:05.948Z,21.80
2018-11-26T06:08:25.447Z,25.32
2018-11-26T06:10:57.435Z,21.73
2018-11-26T06:13:29.411Z,21.35
2018-11-26T06:28:12.335Z,27.98
2018-11-26T06:30:45.229Z,26.02
2018-11-26T06:51:05.432Z,31.20
2018-11-26T06:53:37.391Z,27.62
2018-11-26T06:56:09.328Z,28.00
2018-11-26T06:58:41.322Z,31.42
2018-11-26T07:01:13.348Z,28.30
2018-11-26T07:03:45.877Z,28.50
2018-11-26T07:06:17.912Z,31.20
2018-11-26T07:08:49.877Z,27.13
2018-11-26T07:11:21.823Z,27.17
2018-11-26T07:13:53.797Z,23.90
2018-11-26T07:16:25.743Z,26.00
2018-11-26T07:18:57.695Z,28.10
2018-11-26T07:21:29.649Z,24.65
2018-11-26T07:24:01.575Z,29.75
2018-11-26T07:26:33.564Z,24.60
2018-11-26T07:29:05.586Z,30.15
2018-11-26T07:31:37.584Z,28.40
2018-11-26T07:34:09.644Z,24.43
2018-11-26T07:36:41.647Z,27.52
2018-11-26T07:39:13.627Z,26.00
2018-11-26T07:41:45.589Z,24.07
2018-11-26T07:44:17.577Z,25.52
2018-11-26T07:46:49.564Z,23.22
2018-11-26T07:49:21.535Z,26.97
2018-11-26T07:51:53.556Z,29.77
2018-11-26T07:54:25.559Z,27.13
2018-11-26T08:14:42.315Z,30.97
2018-11-26T08:17:14.317Z,29.77
2018-11-26T08:19:46.320Z,29.00
2018-11-26T08:22:18.312Z,30.20
2018-11-26T08:24:50.871Z,37.35
2018-11-26T08:47:23.002Z,28.47
2018-11-26T09:07:40.740Z,27.15
2018-11-26T09:10:12.684Z,30.48
2018-11-26T09:45:20.824Z,29.63
2018-11-26T09:47:52.803Z,25.32
2018-11-26T10:08:12.851Z,23.75
2018-11-26T10:10:44.879Z,22.50
2018-11-26T10:13:16.957Z,22.82
2018-11-26T10:15:50.062Z,25.20
2018-11-26T10:18:22.079Z,21.25
2018-11-26T10:20:54.063Z,26.35
2018-11-26T10:23:26.003Z,23.05
2018-11-26T10:43:43.695Z,23.65
2018-11-26T10:46:15.762Z,23.02
2018-11-26T10:48:47.831Z,25.97
2018-11-26T10:51:19.862Z,21.27
2018-11-26T10:53:51.857Z,25.77
2018-11-26T11:05:17.161Z,24.50
2018-11-26T11:07:49.200Z,24.82
2018-11-26T11:10:23.244Z,22.35
2018-11-26T11:12:55.288Z,26.02
2018-11-26T11:15:27.351Z,23.32
2018-11-26T11:17:59.430Z,24.05
2018-11-26T11:20:31.461Z,28.10
2018-11-26T11:23:03.496Z,26.23
2018-11-26T11:25:35.636Z,25.77
2018-11-26T11:28:07.669Z,25.70
2018-11-26T11:30:39.652Z,25.68
2018-11-26T11:35:45.955Z,28.92
2018-11-26T11:38:18.027Z,27.65
2018-11-26T11:40:50.009Z,30.77
2018-11-26T11:43:22.059Z,23.50
2018-11-26T11:45:54.083Z,27.52
2018-11-26T11:48:26.164Z,30.88
2018-11-26T11:50:58.148Z,26.25
2018-11-26T11:53:31.053Z,26.35
2018-11-26T11:56:03.118Z,27.93
2018-11-26T11:58:35.096Z,30.20
2018-11-26T12:01:10.659Z,26.17
2018-11-26T12:03:39.169Z,29.55
2018-11-26T12:06:11.411Z,25.25
2018-11-26T12:08:43.212Z,25.70
2018-11-26T12:11:15.325Z,26.85
2018-11-26T12:13:48.218Z,30.10
2018-11-26T12:16:20.215Z,27.42
2018-11-26T12:18:52.261Z,27.15
2018-11-26T12:21:24.276Z,29.63
2018-11-26T12:23:56.312Z,31.05
2018-11-26T12:26:28.333Z,27.35
2018-11-26T12:29:00.345Z,27.52
2018-11-26T12:31:32.452Z,27.32
2018-11-26T12:34:05.116Z,29.15
2018-11-26T12:36:37.173Z,29.90
2018-11-26T12:39:09.321Z,27.50
2018-11-26T12:41:41.372Z,26.27
2018-11-26T12:44:13.413Z,30.45
2018-11-26T12:46:45.394Z,29.77
2018-11-26T12:49:17.384Z,30.95
2018-11-26T12:51:49.393Z,28.85
2018-11-26T12:54:21.445Z,26.97
2018-11-26T12:56:53.420Z,30.48
2018-11-26T12:59:25.494Z,28.55
2018-11-26T13:01:57.504Z,27.98
2018-11-26T13:04:29.605Z,29.98
2018-11-26T13:07:01.578Z,32.70
2018-11-26T13:09:33.633Z,26.50
2018-11-26T13:12:05.657Z,26.10
2018-11-26T13:14:37.638Z,32.00
2018-11-26T13:17:09.620Z,26.55
2018-11-26T13:19:44.378Z,32.42
2018-11-26T13:22:16.397Z,27.75
2018-11-26T13:24:48.429Z,30.02
2018-11-26T13:27:20.434Z,29.52
2018-11-26T14:17:16.056Z,27.50
2018-11-26T14:19:48.037Z,24.25
2018-11-26T14:22:20.373Z,31.55
2018-11-26T14:24:52.374Z,27.60
2018-11-26T14:27:24.405Z,27.07
2018-11-26T14:29:56.421Z,25.92
2018-11-26T14:32:28.471Z,25.72
2018-11-26T14:35:00.549Z,28.70
2018-11-26T14:37:32.689Z,26.82
2018-11-26T14:57:49.926Z,26.50
2018-11-26T15:18:19.521Z,28.12
2018-11-26T15:50:27.229Z,27.10
2018-11-26T16:13:43.305Z,26.33
2018-11-26T16:16:15.277Z,30.05
2018-11-26T16:36:39.121Z,32.65
2018-11-26T16:39:11.096Z,30.65
2018-11-26T16:41:43.156Z,31.02
2018-11-26T17:02:06.946Z,31.52
2018-11-26T17:22:32.625Z,30.08
2018-11-26T17:46:05.708Z,29.02
2018-11-26T18:09:27.722Z,29.95
2018-11-26T18:29:53.534Z,27.73
2018-11-26T18:50:17.077Z,33.40
2018-11-26T19:10:36.766Z,26.68
2018-11-26T19:30:55.783Z,31.68
2018-11-26T19:51:12.701Z,30.40
2018-11-26T19:53:45.445Z,32.20
2018-11-26T20:14:02.361Z,33.38
2018-11-26T20:34:20.548Z,22.25
2018-11-26T21:03:50.003Z,29.15
2018-11-26T21:06:22.027Z,29.67
2018-11-26T21:26:39.677Z,29.90
2018-11-26T21:46:57.044Z,33.67
2018-11-26T22:07:35.730Z,29.50
2018-11-26T22:28:02.178Z,29.00
2018-11-26T22:48:20.931Z,25.88
2018-11-26T22:50:53.259Z,27.50
2018-11-26T22:53:25.665Z,27.40
2018-11-26T22:55:58.003Z,32.15
2018-11-26T23:19:12.619Z,31.85
2018-11-26T23:21:44.689Z,24.25
2018-11-26T23:24:16.792Z,31.77
2018-11-26T23:47:45.184Z,31.50
